Muleshoe, TX (79347)

1:37 AM CDT on August 31, 2016 (GMT -0500)
Farwell FHS Neighborhood | | Change Station

Elev 4154 ft 34.38 °N, 103.04 °W | Updated 7 minutes ago

Overcast
Overcast
63.7 °F
Feels Like 63.7 °F
N
2.2
Wind Variable Wind from East

Today
High -- | Low -- °F
--% Chance of Precip.
Yesterday
High -- | Low -- °F
Precip. -- in
Pressure 30.27 in
Visibility 10.0 miles
Clouds Scattered Clouds 800 ft
Overcast 11000 ft
Dew Point 63 °F
Humidity 99%
Rainfall 0.00 in
Snow Depth Not available.
7:24 AM 8:17 PM
Waning Crescent, 1% visible
METAR KCVN 310635Z AUTO 07003KT 10SM SCT008 OVC110 18/16 A3027 RMK AO1
Pressure 30.27 in
Visibility 10.0 miles
Clouds Scattered Clouds 800 ft
Overcast 11000 ft
Dew Point 63 °F
Humidity 99%
Rainfall 0.00 in
Snow Depth Not available.
7:24 AM 8:17 PM
Waning Crescent, 1% visible
METAR KCVN 310635Z AUTO 07003KT 10SM SCT008 OVC110 18/16 A3027 RMK AO1

10-Day Weather Forecast

Almanac

Astronomy

Aug. 31, 2016 Rise Set
Actual Time
Civil Twilight
Nautical Twilight
Astronomical Twilight
Moon
Length of Visible Light
Length of Day
Tomorrow will be .
, % of the Moon is Illuminated

Today's Extremes

State Highs State Lows

Community

WunderPhotos

Upload Photos

1,936,040 photos uploaded!

WunderBlog® & News

Nearby

Air Quality

  Air Quality AQ Index Pollutant
Not available.

Snow Depth

Station Depth Elevation

Earthquake Activity

City Distance Mag. Time & Date
Minimum magnitude displayed is 2.5.

Coastal Water Temperatures

Place Temperature

Stations

Nearby Weather Stations

Station Location Temp. Windchill Dew Point Humidity Wind Precip. Elev Updated Type
                   

Watches & Warnings

There are currently no watches in effect.